Aérodrome :
LOGIN :

S'inscrire | Disclaimer

   EN    FR    IT 

 










Légende :    VFR   VFR Marginal   IFR   IFR Intensif   IFR Très Intensif
Visi : 
Plafond : 
>= 8 km
>= 3000ft
5 à 8 km
1000 à 3000 ft
1500m à 5 km
500 à 1000 ft
800 à 1500m
200 à 500 ft
< 800m
< 200 ft
Symboles :   Orages  Brouillard  Fortes neiges  Fortes précipitations  Vent > 20 kt
SIGMETs :   Divers  Orages  Givrage  Turbulence  Onde Orograph.  Cendres Volcan.







- Altitude de l'aérodrome : 74 ft
- Code IATA : NDZ


ETMN - Cuxhaven Nordholz Sea AB

DERNIER METAR :
  • 111220Z 35011KT 9999 FEW025 06/00 Q1020 BLU+BLU+

METARs EXPIRÉS :
  • 111120Z 01010KT 9999 FEW025 06/00 Q1020 BLU+BLU+
  • 111020Z 35011KT 9999 FEW025 06/00 Q1019 BLU+BLU+

TAF TAF ETMN
Valide du 11 à 12h jusqu'au 11 à 21h UTC


111114Z 1112/1121 36010KT 9999 NSW FEW025
TEMPO 1118/1121 02008KT 8000 NSW BKN015
Pas de NOTAMs connus pour ce terrain.
1 SIGMET publié pour la FIR Bremen (EDWW) :
 
Givrage fort
EDWW SIGMET 1 VALID 111131/111530 EDZH
EDWW BREMEN FIR SEV ICE FCST APRX 50NM WID LINE BTN N5131 E01333 - N5455 E01311 1500FT/FL070 NC FCST AT 1530Z APRX 50NM WID LINE BTN N5131 E01333 - N5455 E01311=



MET'MAP, la Météo Aéronautique d'un coup d'oeil ! - Copyright ORBIFLY Décembre 2007 - Disclaimer

ORBIFLY MET'MAP TEAM :

Programmation & Développement : Alexandra Zaïnal
Conception & Développement : Baudouin d'Aumeries
Co-Programmation & Développement : Marc-Olivier Méhu
Soutien technique & logistique : Manuel Goepfert

Contact : metmap@orbifly.com




SOURCES & CREDITS :

   NOAA